createdAt,value
2018-07-23T00:00:34.844Z,99.90
2018-07-23T00:03:02.037Z,99.90
2018-07-23T00:05:29.745Z,99.90
2018-07-23T00:07:56.988Z,99.90
2018-07-23T00:10:24.192Z,99.90
2018-07-23T00:12:51.824Z,99.90
2018-07-23T00:15:19.076Z,99.90
2018-07-23T00:17:46.299Z,99.90
2018-07-23T00:20:13.653Z,99.90
2018-07-23T00:22:40.890Z,99.90
2018-07-23T00:25:08.119Z,99.90
2018-07-23T00:27:35.364Z,99.90
2018-07-23T00:30:02.662Z,99.90
2018-07-23T00:32:29.886Z,99.90
2018-07-23T00:34:57.144Z,99.90
2018-07-23T00:37:24.336Z,99.90
2018-07-23T00:39:51.548Z,99.90
2018-07-23T00:42:18.789Z,99.90
2018-07-23T00:44:46.041Z,99.90
2018-07-23T00:47:13.247Z,99.90
2018-07-23T00:49:40.497Z,99.90
2018-07-23T00:52:07.779Z,99.90
2018-07-23T00:54:34.986Z,99.90
2018-07-23T00:57:02.656Z,99.90
2018-07-23T00:59:30.086Z,99.90
2018-07-23T01:01:57.296Z,99.90
2018-07-23T01:04:24.613Z,99.90
2018-07-23T01:06:51.829Z,99.90
2018-07-23T01:09:19.057Z,99.90
2018-07-23T01:11:46.512Z,99.90
2018-07-23T01:14:13.764Z,99.90
2018-07-23T01:16:41.072Z,99.90
2018-07-23T01:19:08.371Z,99.90
2018-07-23T01:21:35.704Z,99.90
2018-07-23T01:24:02.948Z,99.90
2018-07-23T01:26:30.155Z,99.90
2018-07-23T01:28:57.378Z,99.90
2018-07-23T01:31:24.620Z,99.90
2018-07-23T01:33:51.864Z,99.90
2018-07-23T01:36:19.100Z,99.90
2018-07-23T01:38:46.324Z,99.90
2018-07-23T01:41:13.596Z,99.90
2018-07-23T01:43:40.924Z,99.90
2018-07-23T01:46:08.384Z,99.90
2018-07-23T01:48:36.863Z,99.90
2018-07-23T01:51:04.345Z,99.90
2018-07-23T01:53:31.532Z,99.90
2018-07-23T01:55:58.735Z,99.90
2018-07-23T01:58:26.032Z,99.90
2018-07-23T02:00:53.457Z,99.90
2018-07-23T02:03:20.804Z,99.90
2018-07-23T02:05:48.036Z,99.90
2018-07-23T02:08:15.407Z,99.90
2018-07-23T02:10:42.734Z,99.90
2018-07-23T02:13:10.042Z,99.90
2018-07-23T02:15:37.352Z,99.90
2018-07-23T02:18:04.872Z,99.90
2018-07-23T02:20:32.169Z,99.90
2018-07-23T02:22:59.399Z,99.90
2018-07-23T02:25:26.651Z,99.90
2018-07-23T02:27:53.848Z,99.90
2018-07-23T02:30:21.054Z,99.90
2018-07-23T02:32:48.385Z,99.90
2018-07-23T02:35:15.569Z,99.90
2018-07-23T02:37:42.784Z,99.90
2018-07-23T02:40:10.164Z,99.90
2018-07-23T02:42:37.413Z,99.90
2018-07-23T02:45:04.701Z,99.90
2018-07-23T02:47:32.217Z,99.90
2018-07-23T02:49:59.391Z,99.90
2018-07-23T02:52:26.586Z,99.90
2018-07-23T02:54:53.906Z,99.90
2018-07-23T02:57:21.096Z,99.90
2018-07-23T02:59:48.292Z,99.90
2018-07-23T03:02:15.556Z,99.90
2018-07-23T03:04:42.752Z,99.90
2018-07-23T03:07:09.951Z,99.90
2018-07-23T03:09:37.264Z,99.90
2018-07-23T03:12:04.470Z,99.90
2018-07-23T03:14:31.684Z,99.90
2018-07-23T03:16:58.964Z,99.90
2018-07-23T03:19:26.288Z,99.90
2018-07-23T03:21:53.693Z,99.90
2018-07-23T03:29:56.196Z,99.90
2018-07-23T03:32:23.476Z,99.90
2018-07-23T03:34:50.740Z,99.90
2018-07-23T03:37:17.992Z,99.90
2018-07-23T03:39:45.379Z,99.90
2018-07-23T03:42:12.620Z,99.90
2018-07-23T03:44:39.888Z,99.90
2018-07-23T03:47:07.113Z,99.90
2018-07-23T03:49:34.320Z,99.90
2018-07-23T03:52:01.578Z,99.90
2018-07-23T03:54:28.952Z,99.90
2018-07-23T03:56:56.152Z,99.90
2018-07-23T03:59:23.371Z,99.90
2018-07-23T04:01:50.558Z,99.90
2018-07-23T04:04:17.788Z,99.90
2018-07-23T04:06:46.744Z,99.90
2018-07-23T04:09:14.015Z,99.90
2018-07-23T04:11:41.411Z,99.90
2018-07-23T04:14:08.639Z,99.90
2018-07-23T04:16:36.044Z,99.90
2018-07-23T04:19:03.252Z,99.90
2018-07-23T04:21:30.496Z,99.90
2018-07-23T04:23:57.929Z,99.90
2018-07-23T04:26:25.244Z,99.90
2018-07-23T04:28:52.494Z,99.90
2018-07-23T04:31:19.693Z,99.90
2018-07-23T04:33:46.905Z,99.90
2018-07-23T04:36:14.139Z,99.90
2018-07-23T04:38:41.485Z,99.90
2018-07-23T04:41:08.716Z,99.90
2018-07-23T04:43:36.225Z,99.90
2018-07-23T04:46:03.628Z,99.90
2018-07-23T04:48:30.805Z,99.90
2018-07-23T04:50:58.020Z,99.90
2018-07-23T04:53:25.296Z,99.90
2018-07-23T04:55:52.488Z,99.90
2018-07-23T04:58:19.974Z,99.90
2018-07-23T05:00:47.229Z,99.90
2018-07-23T05:03:14.590Z,99.90
2018-07-23T05:05:41.834Z,99.90
2018-07-23T05:08:09.145Z,99.90
2018-07-23T05:10:36.348Z,99.90
2018-07-23T05:13:03.901Z,99.90
2018-07-23T05:15:31.103Z,99.90
2018-07-23T05:17:58.341Z,99.90
2018-07-23T05:20:25.857Z,99.90
2018-07-23T05:22:53.092Z,99.90
2018-07-23T05:25:20.301Z,99.90
2018-07-23T05:27:47.516Z,99.90
2018-07-23T05:30:14.754Z,99.90
2018-07-23T05:32:41.976Z,99.90
2018-07-23T05:35:09.232Z,99.90
2018-07-23T05:37:36.488Z,99.90
2018-07-23T05:40:03.747Z,99.90
2018-07-23T05:42:31.016Z,99.90
2018-07-23T05:44:58.231Z,99.90
2018-07-23T05:47:25.424Z,99.90
2018-07-23T05:49:52.692Z,99.90
2018-07-23T05:52:20.389Z,99.90
2018-07-23T05:54:48.339Z,99.90
2018-07-23T05:57:15.577Z,99.90
2018-07-23T05:59:42.806Z,99.90
2018-07-23T06:02:10.103Z,99.90
2018-07-23T06:04:37.373Z,99.90
2018-07-23T06:09:31.796Z,99.90
2018-07-23T06:14:26.585Z,99.90
2018-07-23T06:16:53.835Z,99.90
2018-07-23T06:19:21.084Z,99.90
2018-07-23T06:21:48.324Z,99.90
2018-07-23T06:24:15.532Z,99.90
2018-07-23T06:26:42.784Z,99.90
2018-07-23T06:29:10.082Z,99.90
2018-07-23T06:31:37.361Z,99.90
2018-07-23T06:34:04.697Z,99.90
2018-07-23T06:36:32.000Z,99.90
2018-07-23T06:38:59.215Z,99.90
2018-07-23T06:41:26.467Z,99.90
2018-07-23T06:43:53.675Z,99.90
2018-07-23T06:46:20.929Z,99.90
2018-07-23T06:48:48.160Z,99.90
2018-07-23T06:51:15.386Z,99.90
2018-07-23T06:53:42.650Z,99.90
2018-07-23T06:56:09.936Z,99.90
2018-07-23T06:58:37.179Z,99.90
2018-07-23T07:01:04.440Z,99.90
2018-07-23T07:03:31.632Z,99.90
2018-07-23T07:05:58.894Z,99.90
2018-07-23T07:08:26.192Z,99.90
2018-07-23T07:10:53.488Z,99.90
2018-07-23T07:13:20.772Z,99.90
2018-07-23T07:15:47.948Z,99.90
2018-07-23T07:18:15.245Z,99.90
2018-07-23T07:20:42.533Z,99.90
2018-07-23T07:23:09.937Z,99.90
2018-07-23T07:25:37.293Z,99.90
2018-07-23T07:28:04.617Z,99.90
2018-07-23T07:30:31.838Z,99.90
2018-07-23T07:32:59.141Z,99.90
2018-07-23T07:35:26.372Z,99.90
2018-07-23T07:37:53.713Z,99.90
2018-07-23T07:40:20.917Z,99.90
2018-07-23T07:42:48.271Z,99.90
2018-07-23T07:45:15.536Z,99.90
2018-07-23T07:47:42.848Z,99.90
2018-07-23T07:50:10.439Z,99.90
2018-07-23T07:52:37.687Z,99.90
2018-07-23T07:55:05.436Z,99.90
2018-07-23T07:57:32.696Z,99.90
2018-07-23T07:59:59.937Z,99.90
2018-07-23T08:02:27.195Z,99.90
2018-07-23T08:04:54.438Z,99.90
2018-07-23T08:07:21.728Z,99.90
2018-07-23T08:09:49.054Z,99.90
2018-07-23T08:12:16.361Z,99.90
2018-07-23T08:14:43.649Z,99.90
2018-07-23T08:17:11.228Z,99.90
2018-07-23T08:19:38.520Z,99.90
2018-07-23T08:22:06.056Z,99.90
2018-07-23T08:24:33.348Z,99.90
2018-07-23T08:29:27.836Z,99.90
2018-07-23T08:31:55.183Z,99.90
2018-07-23T08:34:22.455Z,99.90
2018-07-23T08:36:50.055Z,99.90
2018-07-23T08:39:17.758Z,99.90
2018-07-23T08:41:45.073Z,99.90
2018-07-23T08:44:12.368Z,99.90
2018-07-23T08:46:39.580Z,99.90
2018-07-23T08:49:06.815Z,99.90
2018-07-23T08:51:34.063Z,99.90
2018-07-23T08:54:01.338Z,99.90
2018-07-23T08:56:28.828Z,99.90
2018-07-23T08:58:56.056Z,99.90
2018-07-23T09:01:23.292Z,99.90
2018-07-23T09:03:50.820Z,99.90
2018-07-23T09:06:18.064Z,99.90
2018-07-23T09:08:45.332Z,99.90
2018-07-23T09:11:12.575Z,99.90
2018-07-23T09:13:39.794Z,99.90
2018-07-23T09:16:07.026Z,99.90
2018-07-23T09:18:34.299Z,99.90
2018-07-23T09:21:01.539Z,99.90
2018-07-23T09:23:28.784Z,99.90
2018-07-23T09:25:56.062Z,99.90
2018-07-23T09:28:23.285Z,99.90
2018-07-23T09:30:51.768Z,99.90
2018-07-23T09:33:20.180Z,99.90
2018-07-23T09:35:47.573Z,99.90
2018-07-23T09:38:15.765Z,99.90
2018-07-23T09:40:43.104Z,99.90
2018-07-23T09:43:10.351Z,99.90
2018-07-23T09:45:38.731Z,99.90
2018-07-23T09:48:06.042Z,99.90
2018-07-23T09:50:33.240Z,99.90
2018-07-23T09:53:00.505Z,99.90
2018-07-23T09:55:27.806Z,99.90
2018-07-23T09:57:55.053Z,99.90
2018-07-23T10:00:27.965Z,99.90
2018-07-23T10:02:55.661Z,99.90
2018-07-23T10:05:22.960Z,99.90
2018-07-23T10:07:50.253Z,99.90
2018-07-23T10:10:17.483Z,99.90
2018-07-23T10:12:44.702Z,99.90
2018-07-23T10:15:11.991Z,99.90
2018-07-23T10:17:39.219Z,99.90
2018-07-23T10:20:07.213Z,99.90
2018-07-23T10:22:34.477Z,99.90
2018-07-23T10:25:02.451Z,99.90
2018-07-23T10:27:29.766Z,99.90
2018-07-23T10:29:57.142Z,99.90
2018-07-23T10:32:24.389Z,99.90
2018-07-23T10:34:51.647Z,99.90
2018-07-23T10:37:18.892Z,99.90
2018-07-23T10:39:46.553Z,99.90
2018-07-23T10:42:13.949Z,99.90
2018-07-23T10:44:41.222Z,99.90
2018-07-23T10:47:08.528Z,99.90
2018-07-23T10:49:36.000Z,99.90
2018-07-23T10:52:03.406Z,99.90
2018-07-23T10:54:30.850Z,99.90
2018-07-23T10:56:58.080Z,99.90
2018-07-23T10:59:25.387Z,99.90
2018-07-23T11:01:52.637Z,99.90
2018-07-23T11:04:19.951Z,99.90
2018-07-23T11:06:47.204Z,99.90
2018-07-23T11:09:14.432Z,99.90
2018-07-23T11:11:41.676Z,99.90
2018-07-23T11:14:09.053Z,99.90
2018-07-23T11:16:36.358Z,99.90
2018-07-23T11:19:03.758Z,99.90
2018-07-23T11:21:31.121Z,99.90
2018-07-23T11:23:58.560Z,99.90
2018-07-23T11:26:25.813Z,99.90
2018-07-23T11:28:53.422Z,99.90
2018-07-23T11:31:20.593Z,99.90
2018-07-23T11:33:48.080Z,99.90
2018-07-23T11:36:15.322Z,99.90
2018-07-23T11:38:42.699Z,99.90
2018-07-23T11:43:37.300Z,99.90
2018-07-23T11:46:04.661Z,99.90
2018-07-23T11:48:31.907Z,99.90
2018-07-23T11:50:58.992Z,99.90
2018-07-23T11:53:26.305Z,99.90
2018-07-23T11:55:54.164Z,99.90
2018-07-23T11:58:21.412Z,99.90
2018-07-23T12:00:48.685Z,99.90
2018-07-23T12:03:15.940Z,99.90
2018-07-23T12:05:43.169Z,99.90
2018-07-23T12:08:10.495Z,99.90
2018-07-23T12:10:37.788Z,99.90
2018-07-23T12:13:05.487Z,99.90
2018-07-23T12:15:32.757Z,99.90
2018-07-23T12:18:00.000Z,99.90
2018-07-23T12:20:27.212Z,99.90
2018-07-23T12:22:54.453Z,99.90
2018-07-23T12:25:21.204Z,99.90
2018-07-23T12:27:48.199Z,98.20
2018-07-23T12:30:14.956Z,97.30
2018-07-23T12:32:41.667Z,97.30
2018-07-23T12:35:08.381Z,97.40
2018-07-23T12:37:35.598Z,94.90
2018-07-23T12:40:02.439Z,92.20
2018-07-23T12:42:29.653Z,85.60
2018-07-23T12:44:56.948Z,80.20
2018-07-23T12:47:24.162Z,87.10
2018-07-23T12:49:51.497Z,88.80
2018-07-23T12:52:18.720Z,90.80
2018-07-23T12:57:13.250Z,87.50
2018-07-23T12:59:40.756Z,89.20
2018-07-23T13:02:07.938Z,89.60
2018-07-23T13:04:35.279Z,86.80
2018-07-23T13:07:02.017Z,87.30
2018-07-23T13:09:28.715Z,90.10
2018-07-23T13:11:55.455Z,91.00
2018-07-23T13:14:22.166Z,90.10
2018-07-23T13:16:48.891Z,91.20
2018-07-23T13:19:16.284Z,90.10
2018-07-23T13:21:45.072Z,90.40
2018-07-23T13:24:12.382Z,90.00
2018-07-23T13:26:39.663Z,89.20
2018-07-23T13:29:06.881Z,91.20
2018-07-23T13:31:34.189Z,92.60
2018-07-23T13:34:01.468Z,91.70
2018-07-23T13:36:28.693Z,91.40
2018-07-23T13:38:55.887Z,91.60
2018-07-23T13:41:23.096Z,93.30
2018-07-23T13:43:50.328Z,94.20
2018-07-23T13:46:17.645Z,94.00
2018-07-23T13:48:44.840Z,93.40
2018-07-23T13:51:12.129Z,90.60
2018-07-23T13:53:39.450Z,90.20
2018-07-23T13:56:06.677Z,90.70
2018-07-23T13:58:34.165Z,89.70
2018-07-23T14:03:49.328Z,80.40
2018-07-23T14:06:16.570Z,79.00
2018-07-23T14:08:43.815Z,82.00
2018-07-23T14:11:11.116Z,84.30
2018-07-23T14:13:38.324Z,85.30
2018-07-23T14:16:05.573Z,85.80
2018-07-23T14:18:32.931Z,83.00
2018-07-23T14:21:00.171Z,77.80
2018-07-23T14:25:54.136Z,69.80
2018-07-23T14:28:21.391Z,67.70
2018-07-23T14:30:48.653Z,67.60
2018-07-23T14:33:15.977Z,64.60
2018-07-23T14:35:43.243Z,63.10
2018-07-23T14:38:10.548Z,62.50
2018-07-23T14:40:37.754Z,60.90
2018-07-23T14:43:04.981Z,63.30
2018-07-23T14:45:32.496Z,62.30
2018-07-23T14:47:59.916Z,64.60
2018-07-23T14:50:27.155Z,65.80
2018-07-23T14:52:54.444Z,66.00
2018-07-23T14:55:21.640Z,65.10
2018-07-23T14:57:48.921Z,61.80
2018-07-23T15:00:16.504Z,59.10
2018-07-23T15:02:43.785Z,54.10
2018-07-23T15:07:38.255Z,48.20
2018-07-23T15:10:05.970Z,47.30
2018-07-23T15:12:33.185Z,45.00
2018-07-23T15:15:00.541Z,51.60
2018-07-23T15:17:28.563Z,55.00
2018-07-23T15:19:55.765Z,52.30
2018-07-23T15:22:23.036Z,51.40
2018-07-23T15:24:50.244Z,52.30
2018-07-23T15:27:17.522Z,54.40
2018-07-23T15:29:44.769Z,54.90
2018-07-23T15:32:12.181Z,54.80
2018-07-23T15:34:39.608Z,54.20
2018-07-23T15:37:07.636Z,51.50
2018-07-23T15:39:34.850Z,50.40
2018-07-23T15:42:02.138Z,49.20
2018-07-23T15:44:29.566Z,51.50
2018-07-23T15:46:56.616Z,53.20
2018-07-23T15:49:23.920Z,52.50
2018-07-23T15:51:51.239Z,51.70
2018-07-23T15:56:52.502Z,50.90
2018-07-23T15:59:19.816Z,49.50
2018-07-23T16:01:47.106Z,46.30
2018-07-23T16:04:14.471Z,45.60
2018-07-23T16:06:41.823Z,47.60
2018-07-23T16:09:11.496Z,45.70
2018-07-23T16:11:38.886Z,47.00
2018-07-23T16:14:12.972Z,47.60
2018-07-23T16:16:40.244Z,49.90
2018-07-23T16:19:07.789Z,51.60
2018-07-23T16:21:34.526Z,53.60
2018-07-23T16:24:01.289Z,50.20
2018-07-23T16:26:28.096Z,49.10
2018-07-23T16:28:55.409Z,50.80
2018-07-23T16:31:22.892Z,50.10
2018-07-23T16:33:50.475Z,47.40
2018-07-23T16:36:17.743Z,47.60
2018-07-23T16:38:45.004Z,48.50
2018-07-23T16:41:12.296Z,48.50
2018-07-23T16:43:39.944Z,47.90
2018-07-23T16:46:07.569Z,48.00
2018-07-23T16:48:34.815Z,49.80
2018-07-23T16:51:02.089Z,51.00
2018-07-23T16:53:29.493Z,50.40
2018-07-23T16:55:56.803Z,49.30
2018-07-23T16:58:24.114Z,48.90
2018-07-23T17:00:51.365Z,49.90
2018-07-23T17:03:18.736Z,49.60
2018-07-23T17:05:46.409Z,49.40
2018-07-23T17:08:13.980Z,48.80
2018-07-23T17:10:41.248Z,48.30
2018-07-23T17:15:35.886Z,49.50
2018-07-23T17:18:03.284Z,49.40
2018-07-23T17:20:30.691Z,49.30
2018-07-23T17:22:58.000Z,48.80
2018-07-23T17:25:25.288Z,49.40
2018-07-23T17:27:52.520Z,48.30
2018-07-23T17:32:45.995Z,55.30
2018-07-23T17:35:12.724Z,55.70
2018-07-23T17:37:39.646Z,57.70
2018-07-23T17:40:06.386Z,59.90
2018-07-23T17:42:33.133Z,60.80
2018-07-23T17:44:59.883Z,61.20
2018-07-23T17:47:26.572Z,62.20
2018-07-23T17:49:53.465Z,64.20
2018-07-23T17:52:20.744Z,64.20
2018-07-23T17:54:47.986Z,64.00
2018-07-23T17:57:15.235Z,65.70
2018-07-23T17:59:42.063Z,66.50
2018-07-23T18:02:09.532Z,66.90
2018-07-23T18:04:36.622Z,68.40
2018-07-23T18:07:03.379Z,68.70
2018-07-23T18:09:30.108Z,69.60
2018-07-23T18:11:57.328Z,70.20
2018-07-23T18:14:24.556Z,70.60
2018-07-23T18:16:51.808Z,71.20
2018-07-23T18:19:19.162Z,71.80
2018-07-23T18:21:46.558Z,72.20
2018-07-23T18:24:13.836Z,72.90
2018-07-23T18:26:41.100Z,73.00
2018-07-23T18:29:08.528Z,73.40
2018-07-23T18:31:35.778Z,74.00
2018-07-23T18:34:03.062Z,73.50
2018-07-23T18:36:30.401Z,73.80
2018-07-23T18:38:57.742Z,73.90
2018-07-23T18:41:24.940Z,74.30
2018-07-23T18:43:53.291Z,74.50
2018-07-23T18:46:20.654Z,74.80
2018-07-23T18:49:27.980Z,75.10
2018-07-23T18:51:55.713Z,75.60
2018-07-23T18:54:24.269Z,76.40
2018-07-23T18:56:53.210Z,77.20
2018-07-23T18:59:20.524Z,77.90
2018-07-23T19:01:49.077Z,78.50
2018-07-23T19:04:16.472Z,79.50
2018-07-23T19:06:43.732Z,80.40
2018-07-23T19:09:12.725Z,81.50
2018-07-23T19:11:40.828Z,82.50
2018-07-23T19:14:08.105Z,83.60
2018-07-23T19:16:35.439Z,84.60
2018-07-23T19:19:03.135Z,85.70
2018-07-23T19:21:31.595Z,87.40
2018-07-23T19:23:58.865Z,87.90
2018-07-23T19:26:26.144Z,89.20
2018-07-23T19:28:53.825Z,90.20
2018-07-23T19:31:21.205Z,90.80
2018-07-23T19:33:48.640Z,91.30
2018-07-23T19:36:15.944Z,92.20
2018-07-23T19:38:43.276Z,93.00
2018-07-23T19:41:10.606Z,94.00
2018-07-23T19:43:38.741Z,95.10
2018-07-23T19:46:06.055Z,96.00
2018-07-23T19:48:33.564Z,97.50
2018-07-23T19:51:00.849Z,98.60
2018-07-23T19:53:28.319Z,99.90
2018-07-23T19:55:55.614Z,99.90
2018-07-23T19:58:22.856Z,99.90
2018-07-23T20:01:28.076Z,99.90
2018-07-23T20:03:55.317Z,99.90
2018-07-23T20:06:23.852Z,99.90
2018-07-23T20:08:52.124Z,99.90
2018-07-23T20:11:20.063Z,99.90
2018-07-23T20:13:47.264Z,99.90
2018-07-23T20:16:14.512Z,99.90
2018-07-23T20:18:41.752Z,99.90
2018-07-23T20:21:09.206Z,99.90
2018-07-23T20:23:36.460Z,99.90
2018-07-23T20:26:03.770Z,99.90
2018-07-23T20:28:31.032Z,99.90
2018-07-23T20:30:58.481Z,99.90
2018-07-23T20:33:25.692Z,99.90
2018-07-23T20:35:52.905Z,99.90
2018-07-23T20:38:20.188Z,99.90
2018-07-23T20:40:47.413Z,99.90
2018-07-23T20:43:14.634Z,99.90
2018-07-23T20:45:41.920Z,99.90
2018-07-23T20:48:09.168Z,99.90
2018-07-23T20:50:36.393Z,99.90
2018-07-23T20:53:03.657Z,99.90
2018-07-23T20:55:30.911Z,99.90
2018-07-23T20:57:58.204Z,99.90
2018-07-23T21:00:25.473Z,99.90
2018-07-23T21:02:52.669Z,99.90
2018-07-23T21:05:19.900Z,99.90
2018-07-23T21:07:47.136Z,99.90
2018-07-23T21:10:14.354Z,99.90
2018-07-23T21:12:41.654Z,99.90
2018-07-23T21:15:09.430Z,99.90
2018-07-23T21:17:36.771Z,99.90
2018-07-23T21:20:05.623Z,99.90
2018-07-23T21:22:32.972Z,99.90
2018-07-23T21:25:00.529Z,99.90
2018-07-23T21:27:27.732Z,99.90
2018-07-23T21:29:55.017Z,99.90
2018-07-23T21:32:22.639Z,99.90
2018-07-23T21:34:49.922Z,99.90
2018-07-23T21:37:17.137Z,99.90
2018-07-23T21:39:44.385Z,99.90
2018-07-23T21:42:11.709Z,99.90
2018-07-23T21:44:38.989Z,99.90
2018-07-23T21:47:06.303Z,99.90
2018-07-23T21:49:33.516Z,99.90
2018-07-23T21:52:00.764Z,99.90
2018-07-23T21:54:28.494Z,99.90
2018-07-23T21:56:55.844Z,99.90
2018-07-23T21:59:23.066Z,99.90
2018-07-23T22:07:29.529Z,99.90
2018-07-23T22:09:56.836Z,99.90
2018-07-23T22:12:24.060Z,99.90
2018-07-23T22:14:51.272Z,99.90
2018-07-23T22:17:18.504Z,99.90
2018-07-23T22:19:45.741Z,99.90
2018-07-23T22:23:11.617Z,99.90
2018-07-23T22:25:38.865Z,99.90
2018-07-23T22:28:06.076Z,99.90
2018-07-23T22:30:33.276Z,99.90
2018-07-23T22:33:00.520Z,99.90
2018-07-23T22:35:27.732Z,99.90
2018-07-23T22:37:54.968Z,99.90
2018-07-23T22:40:22.216Z,99.90
2018-07-23T22:42:49.433Z,99.90
2018-07-23T22:45:16.644Z,99.90
2018-07-23T22:47:43.864Z,99.90
2018-07-23T22:50:11.163Z,99.90
2018-07-23T22:52:38.388Z,99.90
2018-07-23T22:55:05.668Z,99.90
2018-07-23T22:57:33.091Z,99.90
2018-07-23T23:00:00.329Z,99.90
2018-07-23T23:02:27.521Z,99.90
2018-07-23T23:04:54.877Z,99.90
2018-07-23T23:07:22.137Z,99.90
2018-07-23T23:09:49.340Z,99.90
2018-07-23T23:12:16.595Z,99.90
2018-07-23T23:14:44.312Z,99.90
2018-07-23T23:17:11.542Z,99.90
2018-07-23T23:19:38.816Z,99.90
2018-07-23T23:22:06.416Z,99.90
2018-07-23T23:24:33.612Z,99.90
2018-07-23T23:27:00.856Z,99.90
2018-07-23T23:29:28.099Z,99.90
2018-07-23T23:31:55.314Z,99.90
2018-07-23T23:34:22.512Z,99.90
2018-07-23T23:36:49.783Z,99.90
2018-07-23T23:39:17.040Z,99.90
2018-07-23T23:41:44.237Z,99.90
2018-07-23T23:44:11.459Z,99.90
2018-07-23T23:46:38.776Z,99.90
2018-07-23T23:49:06.053Z,99.90
2018-07-23T23:51:33.261Z,99.90
2018-07-23T23:54:00.968Z,99.90
2018-07-23T23:56:28.192Z,99.90
2018-07-23T23:58:55.491Z,99.90
